sensor_id;sensor_type;location;lat;lon;timestamp;pressure;altitude;pressure_sealevel;temperature;humidity
68822;BME280;55834;50.870;4.606;2023-04-12T00:01:31;99780.38;;;8.09;60.58
68822;BME280;55834;50.870;4.606;2023-04-12T00:03:56;99767.22;;;8.09;59.28
68822;BME280;55834;50.870;4.606;2023-04-12T00:06:21;99760.81;;;8.16;60.23
68822;BME280;55834;50.870;4.606;2023-04-12T00:09:00;99752.09;;;8.16;59.79
68822;BME280;55834;50.870;4.606;2023-04-12T00:11:26;99752.78;;;8.21;58.99
68822;BME280;55834;50.870;4.606;2023-04-12T00:13:52;99735.88;;;8.28;58.74
68822;BME280;55834;50.870;4.606;2023-04-12T00:16:18;99737.50;;;7.79;59.63
68822;BME280;55834;50.870;4.606;2023-04-12T00:18:43;99717.56;;;8.00;60.99
68822;BME280;55834;50.870;4.606;2023-04-12T00:21:09;99719.59;;;7.91;59.74
68822;BME280;55834;50.870;4.606;2023-04-12T00:23:35;99708.47;;;8.10;59.22
68822;BME280;55834;50.870;4.606;2023-04-12T00:26:02;99716.84;;;7.68;60.05
68822;BME280;55834;50.870;4.606;2023-04-12T00:28:28;99725.16;;;7.28;62.10
68822;BME280;55834;50.870;4.606;2023-04-12T00:30:53;99706.97;;;7.21;62.11
68822;BME280;55834;50.870;4.606;2023-04-12T00:33:18;99712.72;;;7.05;62.91
68822;BME280;55834;50.870;4.606;2023-04-12T00:35:44;99692.53;;;7.35;62.33
68822;BME280;55834;50.870;4.606;2023-04-12T00:38:09;99680.50;;;7.56;62.60
68822;BME280;55834;50.870;4.606;2023-04-12T00:40:40;99675.81;;;7.64;60.78
68822;BME280;55834;50.870;4.606;2023-04-12T00:43:05;99692.22;;;6.88;62.87
68822;BME280;55834;50.870;4.606;2023-04-12T00:45:30;99683.25;;;6.95;63.37
68822;BME280;55834;50.870;4.606;2023-04-12T00:47:56;99642.66;;;7.86;62.77
68822;BME280;55834;50.870;4.606;2023-04-12T00:50:22;99631.22;;;7.87;59.57
68822;BME280;55834;50.870;4.606;2023-04-12T00:52:48;99645.47;;;7.82;59.55
68822;BME280;55834;50.870;4.606;2023-04-12T00:55:14;99653.41;;;6.38;64.89
68822;BME280;55834;50.870;4.606;2023-04-12T00:57:40;99625.25;;;7.04;64.10
68822;BME280;55834;50.870;4.606;2023-04-12T01:00:07;99612.19;;;7.81;62.12
68822;BME280;55834;50.870;4.606;2023-04-12T01:02:39;99618.50;;;7.50;60.53
68822;BME280;55834;50.870;4.606;2023-04-12T01:05:06;99616.28;;;7.11;62.69
68822;BME280;55834;50.870;4.606;2023-04-12T01:13:21;99610.81;;;5.99;65.82
68822;BME280;55834;50.870;4.606;2023-04-12T01:16:03;99585.66;;;6.84;64.83
68822;BME280;55834;50.870;4.606;2023-04-12T01:18:33;99568.72;;;6.94;64.28
68822;BME280;55834;50.870;4.606;2023-04-12T01:21:08;99561.91;;;7.41;64.01
68822;BME280;55834;50.870;4.606;2023-04-12T01:24:07;99543.66;;;7.87;62.04
68822;BME280;55834;50.870;4.606;2023-04-12T01:26:44;99530.81;;;8.03;60.07
68822;BME280;55834;50.870;4.606;2023-04-12T01:29:13;99529.03;;;7.80;59.79
68822;BME280;55834;50.870;4.606;2023-04-12T01:31:43;99524.69;;;7.29;61.87
68822;BME280;55834;50.870;4.606;2023-04-12T01:34:10;99513.13;;;7.59;61.15
68822;BME280;55834;50.870;4.606;2023-04-12T01:36:36;99500.47;;;7.45;61.60
68822;BME280;55834;50.870;4.606;2023-04-12T01:39:03;99502.22;;;7.70;61.27
68822;BME280;55834;50.870;4.606;2023-04-12T01:41:31;99494.59;;;7.39;61.44
68822;BME280;55834;50.870;4.606;2023-04-12T01:43:57;99494.59;;;7.39;62.17
68822;BME280;55834;50.870;4.606;2023-04-12T01:46:22;99469.41;;;7.82;61.20
68822;BME280;55834;50.870;4.606;2023-04-12T01:48:51;99459.31;;;7.93;60.45
68822;BME280;55834;50.870;4.606;2023-04-12T01:54:43;99455.69;;;7.74;61.20
68822;BME280;55834;50.870;4.606;2023-04-12T01:57:09;99439.97;;;7.96;60.40
68822;BME280;55834;50.870;4.606;2023-04-12T01:59:38;99434.09;;;7.89;60.63
68822;BME280;55834;50.870;4.606;2023-04-12T02:02:04;99437.66;;;7.64;61.12
68822;BME280;55834;50.870;4.606;2023-04-12T02:04:32;99439.09;;;7.24;61.93
68822;BME280;55834;50.870;4.606;2023-04-12T02:06:57;99431.28;;;7.46;62.29
68822;BME280;55834;50.870;4.606;2023-04-12T02:09:23;99422.59;;;7.91;61.56
68822;BME280;55834;50.870;4.606;2023-04-12T02:11:48;99404.81;;;7.76;61.07
68822;BME280;55834;50.870;4.606;2023-04-12T02:14:14;99402.56;;;7.65;60.86
68822;BME280;55834;50.870;4.606;2023-04-12T02:16:40;99388.78;;;7.12;64.00
68822;BME280;55834;50.870;4.606;2023-04-12T02:19:10;99378.81;;;7.45;63.39
68822;BME280;55834;50.870;4.606;2023-04-12T02:21:43;99382.53;;;6.91;63.87
68822;BME280;55834;50.870;4.606;2023-04-12T02:24:09;99375.22;;;6.74;64.12
68822;BME280;55834;50.870;4.606;2023-04-12T02:26:34;99374.97;;;7.07;64.05
68822;BME280;55834;50.870;4.606;2023-04-12T02:29:01;99376.34;;;6.40;65.86
68822;BME280;55834;50.870;4.606;2023-04-12T02:31:29;99357.84;;;7.20;64.25
68822;BME280;55834;50.870;4.606;2023-04-12T02:33:57;99364.84;;;6.96;64.01
68822;BME280;55834;50.870;4.606;2023-04-12T02:36:22;99351.56;;;7.00;65.93
68822;BME280;55834;50.870;4.606;2023-04-12T02:38:48;99351.59;;;6.75;65.86
68822;BME280;55834;50.870;4.606;2023-04-12T02:41:18;99347.91;;;6.54;66.69
68822;BME280;55834;50.870;4.606;2023-04-12T02:43:44;99346.13;;;6.82;66.23
68822;BME280;55834;50.870;4.606;2023-04-12T02:46:14;99343.81;;;6.46;66.59
68822;BME280;55834;50.870;4.606;2023-04-12T02:48:40;99336.22;;;6.38;67.91
68822;BME280;55834;50.870;4.606;2023-04-12T02:51:06;99322.84;;;6.72;67.19
68822;BME280;55834;50.870;4.606;2023-04-12T02:53:31;99323.25;;;6.33;67.29
68822;BME280;55834;50.870;4.606;2023-04-12T02:55:56;99322.69;;;6.50;67.84
68822;BME280;55834;50.870;4.606;2023-04-12T02:58:25;99323.78;;;6.17;69.45
68822;BME280;55834;50.870;4.606;2023-04-12T03:00:51;99314.38;;;6.63;68.01
68822;BME280;55834;50.870;4.606;2023-04-12T03:03:16;99310.84;;;6.39;68.24
68822;BME280;55834;50.870;4.606;2023-04-12T03:05:42;99299.94;;;6.51;68.22
68822;BME280;55834;50.870;4.606;2023-04-12T03:08:11;99281.28;;;6.85;67.97
68822;BME280;55834;50.870;4.606;2023-04-12T03:10:37;99288.06;;;6.66;67.42
68822;BME280;55834;50.870;4.606;2023-04-12T03:13:02;99281.47;;;6.29;68.06
68822;BME280;55834;50.870;4.606;2023-04-12T03:15:29;99272.38;;;6.39;67.89
68822;BME280;55834;50.870;4.606;2023-04-12T03:17:54;99277.56;;;6.41;68.27
68822;BME280;55834;50.870;4.606;2023-04-12T03:20:20;99277.53;;;6.67;67.96
68822;BME280;55834;50.870;4.606;2023-04-12T03:22:48;99278.75;;;6.32;68.93
68822;BME280;55834;50.870;4.606;2023-04-12T03:25:13;99266.97;;;6.19;70.23
68822;BME280;55834;50.870;4.606;2023-04-12T03:27:39;99270.88;;;6.32;69.14
68822;BME280;55834;50.870;4.606;2023-04-12T03:30:05;99261.41;;;6.53;68.64
68822;BME280;55834;50.870;4.606;2023-04-12T03:32:31;99269.59;;;6.94;68.02
68822;BME280;55834;50.870;4.606;2023-04-12T03:34:56;99268.91;;;6.39;68.67
68822;BME280;55834;50.870;4.606;2023-04-12T03:37:22;99249.59;;;6.41;68.69
68822;BME280;55834;50.870;4.606;2023-04-12T03:39:47;99251.88;;;6.00;70.03
68822;BME280;55834;50.870;4.606;2023-04-12T03:42:13;99256.16;;;6.28;68.67
68822;BME280;55834;50.870;4.606;2023-04-12T03:44:40;99235.66;;;6.64;69.08
68822;BME280;55834;50.870;4.606;2023-04-12T03:47:05;99237.47;;;6.62;68.11
68822;BME280;55834;50.870;4.606;2023-04-12T03:49:30;99245.84;;;6.73;67.69
68822;BME280;55834;50.870;4.606;2023-04-12T03:51:57;99239.94;;;7.15;67.86
68822;BME280;55834;50.870;4.606;2023-04-12T03:54:22;99222.31;;;6.95;67.28
68822;BME280;55834;50.870;4.606;2023-04-12T03:56:48;99218.53;;;7.03;67.15
68822;BME280;55834;50.870;4.606;2023-04-12T03:59:13;99223.81;;;7.24;66.46
68822;BME280;55834;50.870;4.606;2023-04-12T04:01:40;99210.78;;;6.99;67.07
68822;BME280;55834;50.870;4.606;2023-04-12T04:04:05;99213.38;;;7.23;66.08
68822;BME280;55834;50.870;4.606;2023-04-12T04:06:31;99214.28;;;7.22;65.88
68822;BME280;55834;50.870;4.606;2023-04-12T04:08:58;99191.19;;;7.74;65.42
68822;BME280;55834;50.870;4.606;2023-04-12T04:11:24;99203.44;;;7.53;65.10
68822;BME280;55834;50.870;4.606;2023-04-12T04:13:50;99210.06;;;7.18;66.85
68822;BME280;55834;50.870;4.606;2023-04-12T04:16:15;99196.53;;;7.29;66.61
68822;BME280;55834;50.870;4.606;2023-04-12T04:18:40;99201.72;;;7.30;66.16
68822;BME280;55834;50.870;4.606;2023-04-12T04:21:06;99206.69;;;7.14;67.08
68822;BME280;55834;50.870;4.606;2023-04-12T04:23:32;99207.44;;;6.72;68.69
68822;BME280;55834;50.870;4.606;2023-04-12T04:26:04;99197.94;;;6.92;67.40
68822;BME280;55834;50.870;4.606;2023-04-12T04:28:30;99191.84;;;6.43;68.83
68822;BME280;55834;50.870;4.606;2023-04-12T04:30:58;99195.97;;;6.98;68.58
68822;BME280;55834;50.870;4.606;2023-04-12T04:33:28;99194.19;;;6.75;68.25
68822;BME280;55834;50.870;4.606;2023-04-12T04:35:54;99192.81;;;6.89;67.66
68822;BME280;55834;50.870;4.606;2023-04-12T04:38:20;99194.81;;;6.82;67.84
68822;BME280;55834;50.870;4.606;2023-04-12T04:40:49;99181.66;;;7.06;67.98
68822;BME280;55834;50.870;4.606;2023-04-12T04:43:18;99179.75;;;6.64;68.50
68822;BME280;55834;50.870;4.606;2023-04-12T04:45:50;99181.78;;;7.03;68.35
68822;BME280;55834;50.870;4.606;2023-04-12T04:48:18;99187.19;;;7.21;67.07
68822;BME280;55834;50.870;4.606;2023-04-12T04:50:45;99177.66;;;7.41;67.05
68822;BME280;55834;50.870;4.606;2023-04-12T04:53:11;99163.56;;;7.21;66.91
68822;BME280;55834;50.870;4.606;2023-04-12T04:55:36;99165.44;;;7.40;67.26
68822;BME280;55834;50.870;4.606;2023-04-12T04:58:02;99170.63;;;7.19;66.53
68822;BME280;55834;50.870;4.606;2023-04-12T05:00:27;99166.72;;;7.30;66.22
68822;BME280;55834;50.870;4.606;2023-04-12T05:02:53;99164.19;;;7.28;67.00
68822;BME280;55834;50.870;4.606;2023-04-12T05:05:18;99159.16;;;7.44;66.77
68822;BME280;55834;50.870;4.606;2023-04-12T05:07:47;99166.19;;;7.21;68.33
68822;BME280;55834;50.870;4.606;2023-04-12T05:10:13;99168.19;;;7.15;66.98
68822;BME280;55834;50.870;4.606;2023-04-12T05:12:38;99170.88;;;7.13;67.64
68822;BME280;55834;50.870;4.606;2023-04-12T05:15:04;99172.78;;;7.32;66.81
68822;BME280;55834;50.870;4.606;2023-04-12T05:17:29;99182.03;;;6.96;68.10
68822;BME280;55834;50.870;4.606;2023-04-12T05:19:56;99188.56;;;7.08;67.26
68822;BME280;55834;50.870;4.606;2023-04-12T05:22:21;99172.94;;;7.05;67.55
68822;BME280;55834;50.870;4.606;2023-04-12T05:24:48;99173.06;;;7.46;67.09
68822;BME280;55834;50.870;4.606;2023-04-12T05:27:14;99174.13;;;7.20;66.98
68822;BME280;55834;50.870;4.606;2023-04-12T05:29:41;99183.59;;;7.24;67.31
68822;BME280;55834;50.870;4.606;2023-04-12T05:32:07;99177.53;;;7.44;66.72
68822;BME280;55834;50.870;4.606;2023-04-12T05:34:32;99166.75;;;7.72;66.62
68822;BME280;55834;50.870;4.606;2023-04-12T05:36:57;99182.69;;;8.10;65.90
68822;BME280;55834;50.870;4.606;2023-04-12T05:39:24;99184.63;;;8.06;64.86
68822;BME280;55834;50.870;4.606;2023-04-12T05:41:50;99182.34;;;7.97;64.61
68822;BME280;55834;50.870;4.606;2023-04-12T05:44:15;99177.25;;;7.72;64.41
68822;BME280;55834;50.870;4.606;2023-04-12T05:46:40;99183.66;;;7.44;64.74
68822;BME280;55834;50.870;4.606;2023-04-12T05:49:06;99181.53;;;7.75;64.54
68822;BME280;55834;50.870;4.606;2023-04-12T05:51:32;99160.53;;;8.36;63.85
68822;BME280;55834;50.870;4.606;2023-04-12T05:53:58;99168.16;;;8.42;62.27
68822;BME280;55834;50.870;4.606;2023-04-12T05:56:26;99166.91;;;8.30;61.47
68822;BME280;55834;50.870;4.606;2023-04-12T05:58:52;99162.94;;;8.61;61.75
68822;BME280;55834;50.870;4.606;2023-04-12T06:01:17;99163.84;;;8.79;60.86
68822;BME280;55834;50.870;4.606;2023-04-12T06:03:44;99176.50;;;8.71;60.50
68822;BME280;55834;50.870;4.606;2023-04-12T06:06:10;99176.59;;;8.88;61.33
68822;BME280;55834;50.870;4.606;2023-04-12T06:08:36;99181.16;;;9.03;60.75
68822;BME280;55834;50.870;4.606;2023-04-12T06:11:03;99176.50;;;9.09;59.93
68822;BME280;55834;50.870;4.606;2023-04-12T06:13:28;99176.44;;;8.91;59.98
68822;BME280;55834;50.870;4.606;2023-04-12T06:15:54;99180.06;;;8.70;61.15
68822;BME280;55834;50.870;4.606;2023-04-12T06:18:19;99178.91;;;8.56;59.92
68822;BME280;55834;50.870;4.606;2023-04-12T06:20:44;99185.81;;;8.20;61.99
68822;BME280;55834;50.870;4.606;2023-04-12T06:23:10;99179.19;;;8.50;62.13
68822;BME280;55834;50.870;4.606;2023-04-12T06:25:36;99165.69;;;8.58;60.60
68822;BME280;55834;50.870;4.606;2023-04-12T06:28:01;99174.06;;;8.47;60.98
68822;BME280;55834;50.870;4.606;2023-04-12T06:30:27;99174.78;;;8.51;61.05
68822;BME280;55834;50.870;4.606;2023-04-12T06:32:52;99167.94;;;8.86;60.36
68822;BME280;55834;50.870;4.606;2023-04-12T06:35:17;99170.81;;;8.80;59.45
68822;BME280;55834;50.870;4.606;2023-04-12T06:37:44;99184.78;;;8.22;60.77
68822;BME280;55834;50.870;4.606;2023-04-12T06:40:09;99185.16;;;8.14;61.84
68822;BME280;55834;50.870;4.606;2023-04-12T06:42:36;99186.19;;;8.51;61.29
68822;BME280;55834;50.870;4.606;2023-04-12T06:45:02;99190.41;;;8.54;60.99
68822;BME280;55834;50.870;4.606;2023-04-12T06:47:28;99184.72;;;8.03;62.10
68822;BME280;55834;50.870;4.606;2023-04-12T06:49:54;99192.94;;;8.36;62.82
68822;BME280;55834;50.870;4.606;2023-04-12T06:52:23;99190.06;;;7.37;62.75
68822;BME280;55834;50.870;4.606;2023-04-12T06:54:49;99184.78;;;8.22;63.51
68822;BME280;55834;50.870;4.606;2023-04-12T06:57:14;99195.72;;;8.73;60.48
68822;BME280;55834;50.870;4.606;2023-04-12T06:59:40;99181.81;;;8.50;59.79
68822;BME280;55834;50.870;4.606;2023-04-12T07:02:06;99184.47;;;8.88;60.12
68822;BME280;55834;50.870;4.606;2023-04-12T07:04:31;99181.28;;;8.81;58.63
68822;BME280;55834;50.870;4.606;2023-04-12T07:06:57;99190.09;;;8.00;61.15
68822;BME280;55834;50.870;4.606;2023-04-12T07:09:22;99178.63;;;7.60;60.21
68822;BME280;55834;50.870;4.606;2023-04-12T07:11:48;99185.78;;;8.40;59.93
68822;BME280;55834;50.870;4.606;2023-04-12T07:14:14;99175.59;;;8.91;58.77
68822;BME280;55834;50.870;4.606;2023-04-12T07:16:41;99180.63;;;8.57;57.65
68822;BME280;55834;50.870;4.606;2023-04-12T07:19:07;99175.47;;;8.75;57.84
68822;BME280;55834;50.870;4.606;2023-04-12T07:21:32;99167.13;;;9.03;57.52
68822;BME280;55834;50.870;4.606;2023-04-12T07:23:58;99173.72;;;9.31;57.21
68822;BME280;55834;50.870;4.606;2023-04-12T07:26:23;99175.00;;;9.22;54.54
68822;BME280;55834;50.870;4.606;2023-04-12T07:28:48;99188.03;;;9.25;56.52
68822;BME280;55834;50.870;4.606;2023-04-12T07:31:14;99187.25;;;9.42;56.80
68822;BME280;55834;50.870;4.606;2023-04-12T07:33:39;99197.84;;;9.40;56.03
68822;BME280;55834;50.870;4.606;2023-04-12T07:36:05;99192.19;;;9.49;56.40
68822;BME280;55834;50.870;4.606;2023-04-12T07:38:30;99199.28;;;9.47;55.95
68822;BME280;55834;50.870;4.606;2023-04-12T07:40:56;99190.16;;;9.55;56.73
68822;BME280;55834;50.870;4.606;2023-04-12T07:43:21;99202.47;;;9.54;56.44
68822;BME280;55834;50.870;4.606;2023-04-12T07:45:47;99195.88;;;9.45;56.56
68822;BME280;55834;50.870;4.606;2023-04-12T07:48:13;99186.19;;;9.63;56.61
68822;BME280;55834;50.870;4.606;2023-04-12T07:50:38;99190.38;;;9.50;57.19
68822;BME280;55834;50.870;4.606;2023-04-12T07:53:40;99180.94;;;9.63;57.38
68822;BME280;55834;50.870;4.606;2023-04-12T07:56:06;99179.09;;;10.00;56.45
68822;BME280;55834;50.870;4.606;2023-04-12T07:58:32;99176.00;;;10.09;56.95
68822;BME280;55834;50.870;4.606;2023-04-12T08:00:58;99170.66;;;9.76;57.90
68822;BME280;55834;50.870;4.606;2023-04-12T08:03:24;99179.03;;;9.67;57.21
68822;BME280;55834;50.870;4.606;2023-04-12T08:05:51;99184.31;;;9.84;55.59
68822;BME280;55834;50.870;4.606;2023-04-12T08:08:20;99185.47;;;9.79;55.43
68822;BME280;55834;50.870;4.606;2023-04-12T08:10:47;99171.25;;;9.99;54.86
68822;BME280;55834;50.870;4.606;2023-04-12T08:13:12;99171.03;;;9.86;55.90
68822;BME280;55834;50.870;4.606;2023-04-12T08:15:39;99183.75;;;9.78;55.62
68822;BME280;55834;50.870;4.606;2023-04-12T08:18:05;99177.56;;;10.13;55.90
68822;BME280;55834;50.870;4.606;2023-04-12T08:20:30;99175.50;;;10.18;56.62
68822;BME280;55834;50.870;4.606;2023-04-12T08:22:57;99168.59;;;10.33;54.85
68822;BME280;55834;50.870;4.606;2023-04-12T08:25:23;99162.00;;;10.75;55.12
68822;BME280;55834;50.870;4.606;2023-04-12T08:27:49;99168.63;;;10.82;53.09
68822;BME280;55834;50.870;4.606;2023-04-12T08:30:16;99172.53;;;10.42;54.67
68822;BME280;55834;50.870;4.606;2023-04-12T08:32:41;99171.47;;;8.85;58.10
68822;BME280;55834;50.870;4.606;2023-04-12T08:35:08;99161.47;;;10.18;56.53
68822;BME280;55834;50.870;4.606;2023-04-12T08:37:34;99164.44;;;10.12;55.98
68822;BME280;55834;50.870;4.606;2023-04-12T08:40:03;99155.19;;;10.71;54.64
68822;BME280;55834;50.870;4.606;2023-04-12T08:42:30;99149.88;;;10.55;52.50
68822;BME280;55834;50.870;4.606;2023-04-12T08:44:56;99151.16;;;10.31;53.25
68822;BME280;55834;50.870;4.606;2023-04-12T08:47:22;99166.09;;;10.30;52.86
68822;BME280;55834;50.870;4.606;2023-04-12T08:49:47;99167.81;;;9.25;54.78
68822;BME280;55834;50.870;4.606;2023-04-12T08:52:13;99175.16;;;9.38;56.17
68822;BME280;55834;50.870;4.606;2023-04-12T08:54:39;99162.75;;;10.11;55.84
68822;BME280;55834;50.870;4.606;2023-04-12T08:57:07;99167.22;;;10.09;53.46
68822;BME280;55834;50.870;4.606;2023-04-12T08:59:37;99166.28;;;10.27;52.85
68822;BME280;55834;50.870;4.606;2023-04-12T09:02:04;99169.97;;;10.40;53.04
68822;BME280;55834;50.870;4.606;2023-04-12T09:04:46;99165.78;;;11.03;53.16
68822;BME280;55834;50.870;4.606;2023-04-12T09:07:11;99172.66;;;11.05;52.99
68822;BME280;55834;50.870;4.606;2023-04-12T09:09:45;99181.44;;;10.90;50.85
68822;BME280;55834;50.870;4.606;2023-04-12T09:12:11;99176.78;;;10.62;51.28
68822;BME280;55834;50.870;4.606;2023-04-12T09:14:38;99166.97;;;10.97;53.75
68822;BME280;55834;50.870;4.606;2023-04-12T09:17:04;99176.66;;;10.48;50.23
68822;BME280;55834;50.870;4.606;2023-04-12T09:19:34;99170.00;;;10.74;51.13
68822;BME280;55834;50.870;4.606;2023-04-12T09:22:01;99180.19;;;10.64;49.88
68822;BME280;55834;50.870;4.606;2023-04-12T09:24:44;99165.19;;;11.29;49.74
68822;BME280;55834;50.870;4.606;2023-04-12T09:27:14;99151.47;;;11.07;49.13
68822;BME280;55834;50.870;4.606;2023-04-12T09:29:39;99144.22;;;11.26;50.15
68822;BME280;55834;50.870;4.606;2023-04-12T09:32:07;99164.31;;;11.61;49.10
68822;BME280;55834;50.870;4.606;2023-04-12T09:34:35;99175.56;;;11.17;49.86
68822;BME280;55834;50.870;4.606;2023-04-12T09:37:17;99186.91;;;10.54;50.84
68822;BME280;55834;50.870;4.606;2023-04-12T09:39:42;99187.31;;;9.77;51.07
68822;BME280;55834;50.870;4.606;2023-04-12T09:42:09;99188.91;;;9.44;52.59
68822;BME280;55834;50.870;4.606;2023-04-12T09:44:35;99195.00;;;8.88;53.21
68822;BME280;55834;50.870;4.606;2023-04-12T09:47:01;99191.16;;;10.39;51.70
68822;BME280;55834;50.870;4.606;2023-04-12T09:49:41;99196.44;;;9.69;53.08
68822;BME280;55834;50.870;4.606;2023-04-12T09:52:09;99190.53;;;10.69;52.52
68822;BME280;55834;50.870;4.606;2023-04-12T09:54:45;99190.13;;;10.92;50.96
68822;BME280;55834;50.870;4.606;2023-04-12T09:57:12;99178.44;;;10.30;49.87
68822;BME280;55834;50.870;4.606;2023-04-12T09:59:41;99180.25;;;10.29;52.35
68822;BME280;55834;50.870;4.606;2023-04-12T10:02:21;99189.56;;;10.19;51.84
68822;BME280;55834;50.870;4.606;2023-04-12T10:04:50;99195.47;;;9.36;52.94
68822;BME280;55834;50.870;4.606;2023-04-12T10:07:16;99186.69;;;10.24;52.12
68822;BME280;55834;50.870;4.606;2023-04-12T10:09:45;99184.59;;;10.13;49.49
68822;BME280;55834;50.870;4.606;2023-04-12T10:12:10;99181.53;;;10.05;49.79
68822;BME280;55834;50.870;4.606;2023-04-12T10:14:36;99183.22;;;10.06;49.03
68822;BME280;55834;50.870;4.606;2023-04-12T10:17:03;99181.19;;;10.28;49.31
68822;BME280;55834;50.870;4.606;2023-04-12T10:19:30;99180.06;;;10.32;50.88
68822;BME280;55834;50.870;4.606;2023-04-12T10:21:58;99176.97;;;10.24;51.89
68822;BME280;55834;50.870;4.606;2023-04-12T10:24:25;99179.75;;;10.38;50.58
68822;BME280;55834;50.870;4.606;2023-04-12T10:27:00;99176.38;;;10.54;50.34
68822;BME280;55834;50.870;4.606;2023-04-12T10:29:29;99170.59;;;10.63;50.18
68822;BME280;55834;50.870;4.606;2023-04-12T10:32:26;99161.81;;;11.58;49.21
68822;BME280;55834;50.870;4.606;2023-04-12T10:34:53;99166.13;;;11.74;48.25
68822;BME280;55834;50.870;4.606;2023-04-12T10:37:19;99158.88;;;12.08;48.40
68822;BME280;55834;50.870;4.606;2023-04-12T10:39:51;99168.00;;;11.88;46.30
68822;BME280;55834;50.870;4.606;2023-04-12T10:44:51;99176.31;;;11.50;46.81
68822;BME280;55834;50.870;4.606;2023-04-12T10:50:29;99191.28;;;9.85;50.42
68822;BME280;55834;50.870;4.606;2023-04-12T10:55:59;99187.66;;;10.38;50.69
68822;BME280;55834;50.870;4.606;2023-04-12T11:01:15;99182.50;;;10.37;51.93
68822;BME280;55834;50.870;4.606;2023-04-12T11:04:17;99194.75;;;10.89;51.14
68822;BME280;55834;50.870;4.606;2023-04-12T11:06:59;99188.44;;;11.39;49.23
68822;BME280;55834;50.870;4.606;2023-04-12T11:09:41;99180.78;;;11.18;48.63
68822;BME280;55834;50.870;4.606;2023-04-12T11:22:16;99175.81;;;11.44;46.54
68822;BME280;55834;50.870;4.606;2023-04-12T11:24:43;99168.97;;;11.56;45.69
68822;BME280;55834;50.870;4.606;2023-04-12T11:27:10;99170.19;;;11.50;44.47
68822;BME280;55834;50.870;4.606;2023-04-12T11:29:36;99152.38;;;11.84;44.16
68822;BME280;55834;50.870;4.606;2023-04-12T11:32:03;99170.69;;;10.77;46.10
68822;BME280;55834;50.870;4.606;2023-04-12T11:34:36;99167.28;;;11.39;45.12
68822;BME280;55834;50.870;4.606;2023-04-12T11:37:02;99162.47;;;11.77;43.89
68822;BME280;55834;50.870;4.606;2023-04-12T11:39:39;99161.97;;;11.70;43.55
68822;BME280;55834;50.870;4.606;2023-04-12T11:42:05;99159.63;;;11.50;44.49
68822;BME280;55834;50.870;4.606;2023-04-12T11:44:34;99165.03;;;11.79;41.91
68822;BME280;55834;50.870;4.606;2023-04-12T11:47:02;99165.75;;;11.35;44.16
68822;BME280;55834;50.870;4.606;2023-04-12T11:49:28;99167.16;;;10.94;46.19
68822;BME280;55834;50.870;4.606;2023-04-12T11:52:01;99156.09;;;11.81;45.38
68822;BME280;55834;50.870;4.606;2023-04-12T11:54:29;99149.44;;;12.18;45.98
68822;BME280;55834;50.870;4.606;2023-04-12T11:56:55;99152.84;;;12.35;45.70
68822;BME280;55834;50.870;4.606;2023-04-12T11:59:21;99155.97;;;12.56;43.89
68822;BME280;55834;50.870;4.606;2023-04-12T12:01:50;99163.31;;;12.08;41.80
68822;BME280;55834;50.870;4.606;2023-04-12T12:04:16;99195.53;;;10.57;45.16
68822;BME280;55834;50.870;4.606;2023-04-12T12:06:42;99219.09;;;10.94;45.57
68822;BME280;55834;50.870;4.606;2023-04-12T12:09:07;99237.63;;;8.96;54.15
68822;BME280;55834;50.870;4.606;2023-04-12T12:11:33;99262.00;;;7.99;54.72
68822;BME280;55834;50.870;4.606;2023-04-12T12:13:58;99271.72;;;7.97;57.02
68822;BME280;55834;50.870;4.606;2023-04-12T12:16:26;99263.69;;;8.00;56.69
68822;BME280;55834;50.870;4.606;2023-04-12T12:18:52;99270.06;;;7.51;56.17
68822;BME280;55834;50.870;4.606;2023-04-12T12:21:17;99245.47;;;7.30;54.35
68822;BME280;55834;50.870;4.606;2023-04-12T12:23:44;99235.72;;;6.13;56.61
68822;BME280;55834;50.870;4.606;2023-04-12T12:26:21;99201.38;;;5.95;56.29
68822;BME280;55834;50.870;4.606;2023-04-12T12:28:52;99199.47;;;7.43;55.69
68822;BME280;55834;50.870;4.606;2023-04-12T12:31:25;99202.72;;;7.92;58.15
68822;BME280;55834;50.870;4.606;2023-04-12T12:33:56;99194.22;;;9.05;56.23
68822;BME280;55834;50.870;4.606;2023-04-12T12:36:32;99210.06;;;8.04;54.69
68822;BME280;55834;50.870;4.606;2023-04-12T12:39:05;99209.66;;;8.94;56.57
68822;BME280;55834;50.870;4.606;2023-04-12T12:41:31;99222.69;;;8.97;56.26
68822;BME280;55834;50.870;4.606;2023-04-12T12:43:56;99216.16;;;9.43;54.40
68822;BME280;55834;50.870;4.606;2023-04-12T12:46:22;99211.34;;;9.70;53.69
68822;BME280;55834;50.870;4.606;2023-04-12T12:48:47;99211.41;;;8.55;54.39
68822;BME280;55834;50.870;4.606;2023-04-12T12:51:14;99211.69;;;8.49;54.80
68822;BME280;55834;50.870;4.606;2023-04-12T12:53:44;99209.53;;;9.16;54.93
68822;BME280;55834;50.870;4.606;2023-04-12T12:56:10;99216.81;;;9.66;53.79
68822;BME280;55834;50.870;4.606;2023-04-12T12:58:36;99216.59;;;9.34;54.06
68822;BME280;55834;50.870;4.606;2023-04-12T13:01:03;99200.38;;;9.61;53.98
68822;BME280;55834;50.870;4.606;2023-04-12T13:03:29;99205.47;;;8.90;54.01
68822;BME280;55834;50.870;4.606;2023-04-12T13:05:54;99200.72;;;9.36;54.04
68822;BME280;55834;50.870;4.606;2023-04-12T13:08:20;99191.78;;;9.57;53.02
68822;BME280;55834;50.870;4.606;2023-04-12T13:10:46;99190.97;;;10.09;53.14
68822;BME280;55834;50.870;4.606;2023-04-12T13:13:11;99193.81;;;10.22;52.62
68822;BME280;55834;50.870;4.606;2023-04-12T13:15:37;99193.59;;;9.74;50.98
68822;BME280;55834;50.870;4.606;2023-04-12T13:18:03;99178.44;;;10.30;52.14
68822;BME280;55834;50.870;4.606;2023-04-12T13:20:28;99187.41;;;9.01;50.67
68822;BME280;55834;50.870;4.606;2023-04-12T13:23:04;99186.63;;;10.08;52.01
68822;BME280;55834;50.870;4.606;2023-04-12T13:25:42;99182.84;;;10.47;51.26
68822;BME280;55834;50.870;4.606;2023-04-12T13:28:07;99179.78;;;10.21;49.52
68822;BME280;55834;50.870;4.606;2023-04-12T13:30:32;99182.75;;;10.15;49.97
68822;BME280;55834;50.870;4.606;2023-04-12T13:33:01;99183.38;;;9.49;52.31
68822;BME280;55834;50.870;4.606;2023-04-12T13:35:29;99185.16;;;9.85;51.81
68822;BME280;55834;50.870;4.606;2023-04-12T13:37:54;99188.09;;;10.13;50.46
68822;BME280;55834;50.870;4.606;2023-04-12T13:40:23;99191.25;;;9.68;51.32